createdAt,value
2022-09-01T00:01:54.825Z,102191.75
2022-09-01T00:04:27.362Z,102190.56
2022-09-01T00:06:56.415Z,102190.81
2022-09-01T00:09:24.979Z,102193.72
2022-09-01T00:11:55.992Z,102183.00
2022-09-01T00:14:30.691Z,102187.75
2022-09-01T00:16:59.956Z,102187.09
2022-09-01T00:19:29.721Z,102177.81
2022-09-01T00:21:58.463Z,102185.53
2022-09-01T00:24:27.147Z,102185.16
2022-09-01T00:26:57.382Z,102184.47
2022-09-01T00:29:26.669Z,102178.84
2022-09-01T00:31:54.957Z,102181.28
2022-09-01T00:34:23.243Z,102183.59
2022-09-01T00:36:51.672Z,102181.19
2022-09-01T00:39:19.655Z,102180.75
2022-09-01T00:41:50.409Z,102179.44
2022-09-01T00:44:24.762Z,102180.03
2022-09-01T00:46:55.162Z,102181.56
2022-09-01T00:49:31.360Z,102178.84
2022-09-01T00:52:04.676Z,102170.75
2022-09-01T00:54:35.033Z,102169.34
2022-09-01T00:57:04.353Z,102170.75
2022-09-01T00:59:34.160Z,102167.91
2022-09-01T01:02:02.109Z,102161.91
2022-09-01T01:04:30.320Z,102170.56
2022-09-01T01:07:02.349Z,102165.00
2022-09-01T01:09:34.035Z,102164.56
2022-09-01T01:12:04.429Z,102173.63
2022-09-01T01:14:37.046Z,102167.50
2022-09-01T01:17:05.556Z,102168.69
2022-09-01T01:19:59.814Z,102163.28
2022-09-01T01:23:07.977Z,102153.59
2022-09-01T01:25:40.601Z,102164.31
2022-09-01T01:28:11.989Z,102159.78
2022-09-01T01:30:43.018Z,102171.09
2022-09-01T01:33:11.591Z,102161.97
2022-09-01T01:35:40.074Z,102165.63
2022-09-01T01:38:08.830Z,102169.59
2022-09-01T01:40:39.039Z,102166.31
2022-09-01T01:43:07.568Z,102173.63
2022-09-01T01:45:36.363Z,102177.03
2022-09-01T01:48:10.776Z,102180.56
2022-09-01T01:50:38.932Z,102176.19
2022-09-01T01:53:11.350Z,102177.97
2022-09-01T01:55:42.027Z,102171.97
2022-09-01T01:58:12.134Z,102182.56
2022-09-01T02:00:43.122Z,102171.03
2022-09-01T02:03:12.838Z,102175.63
2022-09-01T02:05:41.239Z,102170.31
2022-09-01T02:08:11.360Z,102174.09
2022-09-01T02:10:45.981Z,102176.69
2022-09-01T02:13:16.885Z,102179.97
2022-09-01T02:15:46.850Z,102173.84
2022-09-01T02:18:18.227Z,102173.63
2022-09-01T02:20:47.796Z,102174.09
2022-09-01T02:23:18.062Z,102176.50
2022-09-01T02:26:14.474Z,102171.00
2022-09-01T02:28:40.074Z,102180.28
2022-09-01T02:31:09.125Z,102168.34
2022-09-01T02:33:38.163Z,102169.94
2022-09-01T02:36:09.036Z,102169.63
2022-09-01T02:38:38.861Z,102164.88
2022-09-01T02:41:08.361Z,102169.28
2022-09-01T02:43:36.344Z,102168.66
2022-09-01T02:46:06.392Z,102168.31
2022-09-01T02:48:37.337Z,102174.38
2022-09-01T02:51:08.486Z,102173.50
2022-09-01T02:53:37.127Z,102165.22
2022-09-01T02:56:09.736Z,102166.44
2022-09-01T02:58:46.317Z,102164.91
2022-09-01T03:01:17.251Z,102163.84
2022-09-01T03:03:45.328Z,102163.50
2022-09-01T03:06:14.765Z,102167.09
2022-09-01T03:08:42.844Z,102163.50
2022-09-01T03:11:13.337Z,102162.41
2022-09-01T03:13:44.688Z,102162.41
2022-09-01T03:16:12.832Z,102165.97
2022-09-01T03:18:41.070Z,102170.06
2022-09-01T03:21:10.136Z,102171.56
2022-09-01T03:23:38.196Z,102160.81
2022-09-01T03:26:06.429Z,102166.13
2022-09-01T03:28:34.401Z,102162.78
2022-09-01T03:31:03.721Z,102162.75
2022-09-01T03:33:32.572Z,102167.25
2022-09-01T03:36:00.580Z,102165.25
2022-09-01T03:38:28.928Z,102155.81
2022-09-01T03:41:02.114Z,102162.66
2022-09-01T03:43:35.279Z,102163.88
2022-09-01T03:46:05.705Z,102155.72
2022-09-01T03:48:33.856Z,102159.53
2022-09-01T03:51:02.831Z,102155.72
2022-09-01T03:53:33.737Z,102153.34
2022-09-01T03:56:04.231Z,102154.97
2022-09-01T03:58:32.439Z,102155.94
2022-09-01T04:01:02.998Z,102155.56
2022-09-01T04:03:36.176Z,102156.06
2022-09-01T04:06:04.512Z,102156.56
2022-09-01T04:08:33.176Z,102154.56
2022-09-01T04:11:03.947Z,102151.56
2022-09-01T04:13:34.024Z,102157.81
2022-09-01T04:16:02.154Z,102159.84
2022-09-01T04:18:30.331Z,102163.91
2022-09-01T04:21:00.654Z,102155.13
2022-09-01T04:23:30.906Z,102158.00
2022-09-01T04:26:09.120Z,102143.25
2022-09-01T04:28:41.139Z,102152.03
2022-09-01T04:31:17.706Z,102151.78
2022-09-01T04:33:47.515Z,102156.00
2022-09-01T04:36:19.668Z,102156.47
2022-09-01T04:38:48.225Z,102153.31
2022-09-01T04:41:17.811Z,102156.28
2022-09-01T04:43:47.432Z,102158.47
2022-09-01T04:46:15.693Z,102162.72
2022-09-01T04:48:45.997Z,102161.50
2022-09-01T04:51:15.555Z,102156.72
2022-09-01T04:53:48.860Z,102164.75
2022-09-01T04:56:19.737Z,102172.06
2022-09-01T04:58:47.968Z,102171.31
2022-09-01T05:01:17.451Z,102169.31
2022-09-01T05:03:46.183Z,102161.22
2022-09-01T05:06:15.731Z,102168.31
2022-09-01T05:08:45.823Z,102169.34
2022-09-01T05:11:17.878Z,102170.69
2022-09-01T05:13:46.779Z,102167.91
2022-09-01T05:16:24.061Z,102163.25
2022-09-01T05:18:57.253Z,102164.38
2022-09-01T05:21:28.375Z,102171.38
2022-09-01T05:24:01.468Z,102172.88
2022-09-01T05:26:31.747Z,102171.88
2022-09-01T05:29:01.608Z,102172.75
2022-09-01T05:31:34.935Z,102178.59
2022-09-01T05:34:03.489Z,102174.00
2022-09-01T05:36:33.800Z,102168.88
2022-09-01T05:39:04.399Z,102171.59
2022-09-01T05:41:34.581Z,102179.00
2022-09-01T05:44:03.656Z,102181.91
2022-09-01T05:46:31.708Z,102175.94
2022-09-01T05:49:00.047Z,102175.09
2022-09-01T05:51:50.528Z,102177.84
2022-09-01T05:54:23.267Z,102171.06
2022-09-01T05:56:53.668Z,102179.97
2022-09-01T05:59:24.969Z,102174.06
2022-09-01T06:01:54.637Z,102183.94
2022-09-01T06:04:24.804Z,102170.59
2022-09-01T06:07:10.298Z,102175.19
2022-09-01T06:09:43.112Z,102178.91
2022-09-01T06:12:17.847Z,102176.06
2022-09-01T06:14:47.421Z,102172.22
2022-09-01T06:17:16.519Z,102177.91
2022-09-01T06:19:45.068Z,102174.31
2022-09-01T06:22:13.345Z,102177.66
2022-09-01T06:24:43.860Z,102178.47
2022-09-01T06:27:13.665Z,102178.56
2022-09-01T06:29:41.758Z,102175.31
2022-09-01T06:32:12.544Z,102173.75
2022-09-01T06:34:42.751Z,102177.31
2022-09-01T06:37:11.207Z,102178.09
2022-09-01T06:39:39.201Z,102180.56
2022-09-01T06:42:09.635Z,102189.34
2022-09-01T06:44:42.011Z,102187.75
2022-09-01T06:47:10.028Z,102193.16
2022-09-01T06:49:40.149Z,102195.88
2022-09-01T06:52:08.583Z,102190.19
2022-09-01T06:54:39.303Z,102192.78
2022-09-01T06:59:56.718Z,102185.22
2022-09-01T07:02:26.907Z,102188.34
2022-09-01T07:04:55.378Z,102180.84
2022-09-01T07:10:20.948Z,102188.19
2022-09-01T07:13:07.566Z,102195.06
2022-09-01T07:18:29.192Z,102200.09
2022-09-01T07:24:07.913Z,102199.88
2022-09-01T07:26:35.814Z,102211.41
2022-09-01T07:29:07.200Z,102209.25
2022-09-01T07:34:46.272Z,102211.03
2022-09-01T07:38:46.932Z,102211.16
2022-09-01T07:43:12.829Z,102210.13
2022-09-01T07:45:58.343Z,102207.19
2022-09-01T07:51:36.944Z,102208.78
2022-09-01T07:54:06.013Z,102213.56
2022-09-01T07:56:39.480Z,102216.41
2022-09-01T07:59:14.839Z,102207.97
2022-09-01T08:01:45.299Z,102211.47
2022-09-01T08:04:13.362Z,102220.69
2022-09-01T08:06:42.743Z,102217.78
2022-09-01T08:09:27.291Z,102214.50
2022-09-01T08:12:02.031Z,102211.88
2022-09-01T08:14:33.848Z,102221.34
2022-09-01T08:19:53.606Z,102206.47
2022-09-01T08:22:24.277Z,102215.38
2022-09-01T08:24:52.849Z,102205.91
2022-09-01T08:27:21.531Z,102215.81
2022-09-01T08:29:50.169Z,102212.59
2022-09-01T08:32:20.617Z,102213.09
2022-09-01T08:34:48.666Z,102210.44
2022-09-01T08:37:16.655Z,102213.44
2022-09-01T08:39:48.581Z,102211.28
2022-09-01T08:42:25.237Z,102215.28
2022-09-01T08:45:03.838Z,102212.78
2022-09-01T08:47:50.457Z,102216.88
2022-09-01T08:50:22.016Z,102210.56
2022-09-01T08:52:54.565Z,102205.78
2022-09-01T08:55:27.371Z,102208.84
2022-09-01T08:57:59.811Z,102211.97
2022-09-01T09:00:30.321Z,102204.78
2022-09-01T09:03:12.465Z,102200.69
2022-09-01T09:05:51.083Z,102205.81
2022-09-01T09:08:33.378Z,102209.47
2022-09-01T09:11:03.904Z,102210.56
2022-09-01T09:13:39.933Z,102205.84
2022-09-01T09:16:12.440Z,102203.44
2022-09-01T09:19:01.076Z,102201.78
2022-09-01T09:21:34.064Z,102203.72
2022-09-01T09:24:11.642Z,102204.97
2022-09-01T09:26:42.930Z,102204.28
2022-09-01T09:29:11.616Z,102198.22
2022-09-01T09:31:45.903Z,102206.31
2022-09-01T09:34:20.945Z,102203.06
2022-09-01T09:36:54.665Z,102194.19
2022-09-01T09:39:26.862Z,102189.25
2022-09-01T09:42:09.497Z,102197.72
2022-09-01T09:44:44.385Z,102188.66
2022-09-01T09:47:40.368Z,102187.09
2022-09-01T09:50:20.074Z,102193.31
2022-09-01T09:52:48.789Z,102192.22
2022-09-01T09:55:24.618Z,102179.81
2022-09-01T09:57:58.144Z,102184.56
2022-09-01T10:00:28.343Z,102186.75
2022-09-01T10:02:59.857Z,102181.78
2022-09-01T10:05:38.130Z,102171.69
2022-09-01T10:08:07.263Z,102175.09
2022-09-01T10:10:40.815Z,102173.69
2022-09-01T10:13:13.809Z,102171.56
2022-09-01T10:15:42.947Z,102164.09
2022-09-01T10:18:21.061Z,102173.41
2022-09-01T10:20:56.420Z,102173.44
2022-09-01T10:23:31.086Z,102167.56
2022-09-01T10:26:06.023Z,102160.91
2022-09-01T10:28:35.684Z,102166.25
2022-09-01T10:31:05.301Z,102169.28
2022-09-01T10:33:37.020Z,102163.97
2022-09-01T10:36:08.004Z,102166.63
2022-09-01T10:38:36.305Z,102163.56
2022-09-01T10:41:14.704Z,102160.22
2022-09-01T10:43:45.269Z,102155.44
2022-09-01T10:46:50.721Z,102159.44
2022-09-01T10:49:50.427Z,102163.25
2022-09-01T10:52:56.174Z,102167.44
2022-09-01T10:55:32.369Z,102157.72
2022-09-01T11:01:13.375Z,102159.16
2022-09-01T11:04:00.730Z,102144.19
2022-09-01T11:07:17.210Z,102154.44
2022-09-01T11:10:34.817Z,102154.84
2022-09-01T11:13:31.706Z,102145.88
2022-09-01T11:19:37.621Z,102142.75
2022-09-01T11:22:16.767Z,102133.72
2022-09-01T11:25:22.460Z,102135.38
2022-09-01T11:27:59.682Z,102135.31
2022-09-01T11:30:38.171Z,102136.25
2022-09-01T11:33:14.307Z,102134.41
2022-09-01T11:35:44.117Z,102118.63
2022-09-01T11:38:14.295Z,102129.34
2022-09-01T11:40:43.274Z,102120.50
2022-09-01T11:43:13.756Z,102131.75
2022-09-01T11:45:56.858Z,102117.91
2022-09-01T11:48:25.806Z,102125.44
2022-09-01T11:50:59.810Z,102126.53
2022-09-01T11:53:28.491Z,102119.44
2022-09-01T11:55:58.294Z,102115.00
2022-09-01T11:58:39.409Z,102111.81
2022-09-01T12:01:18.770Z,102109.84
2022-09-01T12:03:48.662Z,102111.66
2022-09-01T12:06:22.512Z,102116.38
2022-09-01T12:08:56.759Z,102110.06
2022-09-01T12:11:30.414Z,102104.13
2022-09-01T12:14:01.023Z,102103.81
2022-09-01T12:16:32.663Z,102100.81
2022-09-01T12:19:00.673Z,102104.34
2022-09-01T12:21:30.524Z,102105.34
2022-09-01T12:24:15.403Z,102102.53
2022-09-01T12:26:44.895Z,102098.41
2022-09-01T12:29:14.249Z,102098.75
2022-09-01T12:31:45.905Z,102095.28
2022-09-01T12:34:26.985Z,102087.19
2022-09-01T12:37:11.405Z,102084.56
2022-09-01T12:39:41.172Z,102089.19
2022-09-01T12:42:12.945Z,102085.13
2022-09-01T12:44:51.038Z,102090.81
2022-09-01T12:47:54.259Z,102084.63
2022-09-01T12:50:44.899Z,102077.25
2022-09-01T12:53:32.446Z,102075.63
2022-09-01T12:56:19.656Z,102074.72
2022-09-01T12:58:52.209Z,102085.13
2022-09-01T13:01:29.572Z,102084.06
2022-09-01T13:04:25.961Z,102083.94
2022-09-01T13:06:54.743Z,102081.19
2022-09-01T13:09:22.946Z,102077.44
2022-09-01T13:12:07.724Z,102076.41
2022-09-01T13:14:36.883Z,102076.03
2022-09-01T13:17:06.027Z,102071.28
2022-09-01T13:19:43.680Z,102078.50
2022-09-01T13:22:12.041Z,102076.00
2022-09-01T13:24:40.274Z,102079.25
2022-09-01T13:27:23.986Z,102072.41
2022-09-01T13:29:52.504Z,102069.59
2022-09-01T13:32:22.373Z,102065.97
2022-09-01T13:34:54.164Z,102064.41
2022-09-01T13:37:22.807Z,102066.16
2022-09-01T13:39:51.441Z,102054.63
2022-09-01T13:42:19.930Z,102057.09
2022-09-01T13:44:49.574Z,102053.00
2022-09-01T13:48:15.071Z,102055.94
2022-09-01T13:50:14.907Z,102055.22
2022-09-01T13:52:45.935Z,102045.56
2022-09-01T13:55:25.819Z,102055.44
2022-09-01T13:57:55.912Z,102055.28
2022-09-01T14:00:25.499Z,102052.31
2022-09-01T14:02:55.064Z,102049.25
2022-09-01T14:05:26.955Z,102049.47
2022-09-01T14:07:58.854Z,102038.75
2022-09-01T14:10:27.696Z,102037.44
2022-09-01T14:12:55.698Z,102029.13
2022-09-01T14:15:27.272Z,102027.97
2022-09-01T14:17:57.549Z,102030.00
2022-09-01T14:20:33.455Z,102034.44
2022-09-01T14:23:06.673Z,102021.00
2022-09-01T14:25:35.749Z,102029.19
2022-09-01T14:28:04.066Z,102023.78
2022-09-01T14:30:33.548Z,102027.91
2022-09-01T14:33:02.253Z,102021.78
2022-09-01T14:35:33.256Z,102019.38
2022-09-01T14:38:02.740Z,102020.63
2022-09-01T14:40:30.731Z,102008.91
2022-09-01T14:42:58.806Z,102016.81
2022-09-01T14:45:28.803Z,102015.81
2022-09-01T14:47:58.890Z,102006.31
2022-09-01T14:50:27.534Z,102003.31
2022-09-01T14:52:57.578Z,102001.06
2022-09-01T14:55:26.928Z,102001.88
2022-09-01T14:57:55.123Z,102001.56
2022-09-01T15:00:26.493Z,101993.88
2022-09-01T15:02:55.467Z,101990.78
2022-09-01T15:05:24.089Z,101990.56
2022-09-01T15:07:52.511Z,101978.50
2022-09-01T15:10:24.598Z,101986.66
2022-09-01T15:12:54.464Z,101994.16
2022-09-01T15:15:22.750Z,101991.72
2022-09-01T15:17:50.685Z,101986.69
2022-09-01T15:20:35.834Z,101981.31
2022-09-01T15:23:04.123Z,101979.91
2022-09-01T15:25:33.627Z,101975.13
2022-09-01T15:28:01.637Z,101977.00
2022-09-01T15:30:29.693Z,101981.16
2022-09-01T15:32:57.960Z,101965.13
2022-09-01T15:35:25.922Z,101968.69
2022-09-01T15:37:53.906Z,101965.25
2022-09-01T15:40:22.046Z,101970.03
2022-09-01T15:42:51.423Z,101973.69
2022-09-01T15:45:22.249Z,101964.19
2022-09-01T15:47:50.459Z,101962.75
2022-09-01T15:50:21.645Z,101963.19
2022-09-01T15:52:52.145Z,101968.75
2022-09-01T15:55:21.665Z,101964.91
2022-09-01T15:57:51.775Z,101961.03
2022-09-01T16:00:20.184Z,101955.22
2022-09-01T16:02:48.239Z,101958.13
2022-09-01T16:05:17.878Z,101947.78
2022-09-01T16:07:45.968Z,101947.28
2022-09-01T16:10:14.292Z,101954.69
2022-09-01T16:12:44.279Z,101940.19
2022-09-01T16:15:16.614Z,101941.72
2022-09-01T16:17:58.397Z,101941.81
2022-09-01T16:20:28.558Z,101938.69
2022-09-01T16:22:58.313Z,101944.59
2022-09-01T16:25:35.055Z,101933.00
2022-09-01T16:28:06.204Z,101932.66
2022-09-01T16:30:35.836Z,101943.06
2022-09-01T16:33:20.078Z,101939.56
2022-09-01T16:35:59.883Z,101944.38
2022-09-01T16:38:36.053Z,101940.16
2022-09-01T16:41:10.789Z,101944.28
2022-09-01T16:43:43.627Z,101945.00
2022-09-01T16:46:19.573Z,101946.09
2022-09-01T16:48:52.846Z,101939.91
2022-09-01T16:51:27.083Z,101941.50
2022-09-01T16:54:10.816Z,101942.41
2022-09-01T16:56:50.103Z,101941.56
2022-09-01T16:59:25.459Z,101936.63
2022-09-01T17:02:03.585Z,101932.75
2022-09-01T17:04:39.978Z,101938.75
2022-09-01T17:07:19.938Z,101934.47
2022-09-01T17:09:59.989Z,101934.53
2022-09-01T17:12:32.151Z,101938.47
2022-09-01T17:15:06.938Z,101933.22
2022-09-01T17:17:40.832Z,101932.22
2022-09-01T17:20:09.647Z,101935.19
2022-09-01T17:22:38.947Z,101931.41
2022-09-01T17:25:10.229Z,101936.19
2022-09-01T17:27:41.634Z,101943.56
2022-09-01T17:30:10.342Z,101945.63
2022-09-01T17:33:17.406Z,101945.41
2022-09-01T17:35:54.069Z,101940.69
2022-09-01T17:38:28.688Z,101941.91
2022-09-01T17:41:11.990Z,101942.00
2022-09-01T17:43:48.101Z,101953.16
2022-09-01T17:46:24.638Z,101945.09
2022-09-01T17:48:58.089Z,101945.81
2022-09-01T17:51:30.552Z,101945.47
2022-09-01T17:54:05.460Z,101953.09
2022-09-01T17:56:42.442Z,101948.84
2022-09-01T17:59:16.543Z,101953.38
2022-09-01T18:01:51.890Z,101950.88
2022-09-01T18:04:39.046Z,101956.66
2022-09-01T18:07:13.801Z,101952.94
2022-09-01T18:09:44.659Z,101957.28
2022-09-01T18:12:16.238Z,101959.13
2022-09-01T18:14:51.795Z,101958.06
2022-09-01T18:17:24.631Z,101965.53
2022-09-01T18:20:00.384Z,101954.75
2022-09-01T18:22:34.021Z,101957.59
2022-09-01T18:25:07.082Z,101964.25
2022-09-01T18:27:35.363Z,101961.03
2022-09-01T18:30:03.442Z,101950.56
2022-09-01T18:32:39.515Z,101967.47
2022-09-01T18:35:17.835Z,101969.44
2022-09-01T18:37:58.103Z,101970.25
2022-09-01T18:40:29.442Z,101978.13
2022-09-01T18:43:03.607Z,101976.66
2022-09-01T18:45:37.021Z,101970.88
2022-09-01T18:48:09.722Z,101972.59
2022-09-01T18:50:49.283Z,101974.38
2022-09-01T18:53:26.175Z,101979.63
2022-09-01T18:55:58.960Z,101981.19
2022-09-01T18:58:40.476Z,101980.53
2022-09-01T19:01:10.607Z,101982.03
2022-09-01T19:03:43.704Z,101985.28
2022-09-01T19:06:25.861Z,101988.06
2022-09-01T19:09:14.024Z,101987.34
2022-09-01T19:11:55.853Z,101990.81
2022-09-01T19:14:31.179Z,101983.56
2022-09-01T19:17:10.631Z,101992.28
2022-09-01T19:19:43.702Z,101999.69
2022-09-01T19:22:16.298Z,101992.97
2022-09-01T19:24:48.798Z,101995.56
2022-09-01T19:27:20.119Z,101991.09
2022-09-01T19:29:52.479Z,101987.91
2022-09-01T19:32:22.586Z,101996.38
2022-09-01T19:34:52.883Z,101990.03
2022-09-01T19:37:23.051Z,101997.94
2022-09-01T19:39:54.217Z,101985.53
2022-09-01T19:42:27.063Z,101988.31
2022-09-01T19:44:59.495Z,101997.59
2022-09-01T19:47:37.907Z,102000.47
2022-09-01T19:50:12.305Z,101988.41
2022-09-01T19:52:44.709Z,101988.72
2022-09-01T19:55:16.513Z,101993.19
2022-09-01T19:57:48.446Z,101994.69
2022-09-01T20:00:19.863Z,101990.50
2022-09-01T20:02:51.038Z,101985.81
2022-09-01T20:05:27.743Z,101984.38
2022-09-01T20:08:01.147Z,101987.53
2022-09-01T20:10:56.796Z,101997.88
2022-09-01T20:13:33.547Z,101990.19
2022-09-01T20:16:07.817Z,101991.84
2022-09-01T20:18:39.380Z,101993.84
2022-09-01T20:21:18.914Z,101988.69
2022-09-01T20:23:54.428Z,101991.44
2022-09-01T20:26:26.948Z,101993.50
2022-09-01T20:28:59.051Z,101992.31
2022-09-01T20:31:29.752Z,101991.84
2022-09-01T20:34:01.464Z,101996.41
2022-09-01T20:36:34.628Z,101991.41
2022-09-01T20:39:29.429Z,101995.75
2022-09-01T20:42:01.038Z,101994.16
2022-09-01T20:44:36.313Z,101990.94
2022-09-01T20:47:06.226Z,101991.00
2022-09-01T20:49:35.278Z,101998.69
2022-09-01T20:52:09.419Z,101997.03
2022-09-01T20:54:43.070Z,101995.16
2022-09-01T20:57:21.858Z,101998.59
2022-09-01T20:59:51.410Z,102000.25
2022-09-01T21:02:31.712Z,101999.94
2022-09-01T21:05:06.267Z,102006.97
2022-09-01T21:07:37.927Z,101999.44
2022-09-01T21:10:11.819Z,102005.47
2022-09-01T21:12:42.903Z,102009.94
2022-09-01T21:15:28.508Z,102011.28
2022-09-01T21:18:04.487Z,101998.56
2022-09-01T21:20:39.503Z,102007.78
2022-09-01T21:23:09.428Z,102004.34
2022-09-01T21:25:38.752Z,102001.84
2022-09-01T21:28:07.222Z,102007.59
2022-09-01T21:30:36.922Z,102000.28
2022-09-01T21:33:06.230Z,101998.53
2022-09-01T21:35:34.231Z,101999.75
2022-09-01T21:38:02.171Z,101999.63
2022-09-01T21:40:30.171Z,101986.69
2022-09-01T21:43:02.118Z,101992.16
2022-09-01T21:45:31.550Z,101994.63
2022-09-01T21:47:59.519Z,101988.03
2022-09-01T21:50:27.731Z,101993.03
2022-09-01T21:52:55.732Z,101990.94
2022-09-01T21:55:24.871Z,101990.19
2022-09-01T21:57:52.992Z,101979.50
2022-09-01T22:00:24.658Z,101979.56
2022-09-01T22:02:52.803Z,101980.97
2022-09-01T22:05:21.267Z,101986.06
2022-09-01T22:07:49.292Z,101984.03
2022-09-01T22:10:20.363Z,101982.03
2022-09-01T22:12:50.130Z,101985.53
2022-09-01T22:15:20.576Z,101987.19
2022-09-01T22:17:50.279Z,101983.84
2022-09-01T22:20:22.304Z,101990.06
2022-09-01T22:22:50.861Z,101988.03
2022-09-01T22:25:20.215Z,101983.09
2022-09-01T22:27:48.353Z,101979.31
2022-09-01T22:30:16.877Z,101982.94
2022-09-01T22:32:45.391Z,101984.97
2022-09-01T22:35:16.127Z,101989.31
2022-09-01T22:37:55.283Z,101989.75
2022-09-01T22:40:27.367Z,101994.06
2022-09-01T22:42:55.377Z,101980.63
2022-09-01T22:45:23.508Z,101981.66
2022-09-01T22:47:51.486Z,101985.41
2022-09-01T22:50:21.055Z,101988.56
2022-09-01T22:52:49.109Z,101983.81
2022-09-01T22:55:17.827Z,101976.47
2022-09-01T22:57:45.778Z,101976.47
2022-09-01T23:00:14.673Z,101989.31
2022-09-01T23:02:43.899Z,101985.72
2022-09-01T23:05:12.440Z,101984.00
2022-09-01T23:07:41.771Z,101980.38
2022-09-01T23:10:10.727Z,101979.97
2022-09-01T23:12:38.867Z,101979.38
2022-09-01T23:15:08.426Z,101983.41
2022-09-01T23:17:37.950Z,101982.69
2022-09-01T23:20:07.590Z,101974.06
2022-09-01T23:22:35.790Z,101976.66
2022-09-01T23:25:07.467Z,101974.66
2022-09-01T23:27:35.531Z,101966.69
2022-09-01T23:30:03.538Z,101965.78
2022-09-01T23:32:31.523Z,101958.34
2022-09-01T23:34:59.754Z,101966.88
2022-09-01T23:37:27.826Z,101965.31
2022-09-01T23:39:56.950Z,101958.88
2022-09-01T23:42:26.638Z,101959.91
2022-09-01T23:44:54.567Z,101956.81
2022-09-01T23:47:22.549Z,101957.31
2022-09-01T23:49:50.607Z,101948.81
2022-09-01T23:52:18.577Z,101940.09
2022-09-01T23:54:46.516Z,101951.94
2022-09-01T23:57:14.478Z,101945.03
2022-09-01T23:59:43.795Z,101939.59
